Wind Cave National Park, SD

4:19 AM MDT on August 24, 2016 (GMT -0600)
Hay Creek Road | | Change Station

Elev 5325 ft 43.70 °N, 103.67 °W | Updated 8 seconds ago

Partly Cloudy
Partly Cloudy
44.1 °F
Feels Like 44 °F
N
0.0
Wind Variable Wind from ESE
Gusts 0.0 mph

Today
High -- | Low -- °F
--% Chance of Precip.
Yesterday
High -- | Low -- °F
Precip. -- in
Pressure 30.04 in
Visibility 10.0 miles
Clouds Few 10000 ft
Windchill 44 °F
Dew Point 32 °F
Humidity 62%
Rainfall 0.00 in
Snow Depth Not available.
6:09 AM 7:42 PM
Waning Gibbous, 58% visible
METAR KCUT 240953Z AUTO 00000KT 10SM FEW100 09/M03 A3020 RMK AO2 SLP170 T00891033
Pressure 30.04 in
Visibility 10.0 miles
Clouds Few 10000 ft
Windchill 44 °F
Dew Point 32 °F
Humidity 62%
Rainfall 0.00 in
Snow Depth Not available.
6:09 AM 7:42 PM
Waning Gibbous, 58% visible
METAR KCUT 240953Z AUTO 00000KT 10SM FEW100 09/M03 A3020 RMK AO2 SLP170 T00891033

10-Day Weather Forecast

Almanac

Astronomy

Aug. 24, 2016 Rise Set
Actual Time
Civil Twilight
Nautical Twilight
Astronomical Twilight
Moon
Length of Visible Light
Length of Day
Tomorrow will be .
, % of the Moon is Illuminated

Today's Extremes

State Highs State Lows

Community

WunderPhotos

Upload Photos

1,934,560 photos uploaded!

WunderBlog® & News

Nearby

Air Quality

  Air Quality AQ Index Pollutant
Not available.

Snow Depth

Station Depth Elevation

Earthquake Activity

City Distance Mag. Time & Date
Minimum magnitude displayed is 2.5.

Coastal Water Temperatures

Place Temperature

Stations

Nearby Weather Stations

Station Location Temp. Windchill Dew Point Humidity Wind Precip. Elev Updated Type
                   

Watches & Warnings

There are currently no watches in effect.